createdAt,value
2023-04-23T00:01:49.154Z,100.00
2023-04-23T00:04:18.893Z,100.00
2023-04-23T00:06:48.496Z,100.00
2023-04-23T00:09:18.340Z,100.00
2023-04-23T00:11:46.336Z,100.00
2023-04-23T00:14:14.806Z,100.00
2023-04-23T00:16:43.150Z,100.00
2023-04-23T00:19:11.103Z,100.00
2023-04-23T00:21:39.047Z,100.00
2023-04-23T00:24:07.885Z,100.00
2023-04-23T00:26:36.878Z,100.00
2023-04-23T00:29:04.552Z,100.00
2023-04-23T00:31:32.275Z,100.00
2023-04-23T00:34:00.449Z,100.00
2023-04-23T00:36:28.076Z,100.00
2023-04-23T00:38:55.778Z,100.00
2023-04-23T00:41:24.680Z,100.00
2023-04-23T00:43:54.353Z,100.00
2023-04-23T00:46:22.850Z,100.00
2023-04-23T00:48:51.779Z,100.00
2023-04-23T00:51:19.448Z,100.00
2023-04-23T00:53:47.199Z,100.00
2023-04-23T00:56:15.751Z,100.00
2023-04-23T00:58:43.814Z,100.00
2023-04-23T01:01:14.279Z,100.00
2023-04-23T01:03:44.104Z,100.00
2023-04-23T01:06:11.944Z,100.00
2023-04-23T01:08:40.177Z,100.00
2023-04-23T01:11:08.242Z,100.00
2023-04-23T01:13:36.484Z,100.00
2023-04-23T01:16:04.291Z,100.00
2023-04-23T01:18:34.129Z,100.00
2023-04-23T01:21:01.873Z,100.00
2023-04-23T01:23:32.005Z,100.00
2023-04-23T01:25:59.879Z,100.00
2023-04-23T01:28:27.839Z,100.00
2023-04-23T01:30:56.192Z,100.00
2023-04-23T01:33:24.457Z,100.00
2023-04-23T01:35:52.654Z,100.00
2023-04-23T01:38:23.413Z,100.00
2023-04-23T01:40:52.430Z,100.00
2023-04-23T01:43:21.223Z,100.00
2023-04-23T01:45:48.978Z,100.00
2023-04-23T01:48:16.860Z,100.00
2023-04-23T01:50:44.848Z,100.00
2023-04-23T01:53:12.556Z,100.00
2023-04-23T01:55:42.042Z,100.00
2023-04-23T01:58:11.029Z,100.00
2023-04-23T02:00:38.694Z,100.00
2023-04-23T02:03:06.993Z,100.00
2023-04-23T02:05:36.734Z,100.00
2023-04-23T02:08:05.377Z,100.00
2023-04-23T02:10:33.685Z,100.00
2023-04-23T02:13:02.892Z,100.00
2023-04-23T02:15:32.525Z,100.00
2023-04-23T02:18:01.455Z,100.00
2023-04-23T02:20:29.129Z,100.00
2023-04-23T02:22:57.250Z,100.00
2023-04-23T02:25:25.274Z,100.00
2023-04-23T02:27:53.430Z,100.00
2023-04-23T02:30:22.750Z,100.00
2023-04-23T02:32:52.078Z,100.00
2023-04-23T02:35:19.824Z,100.00
2023-04-23T02:37:47.517Z,100.00
2023-04-23T02:40:15.301Z,100.00
2023-04-23T02:42:43.988Z,100.00
2023-04-23T02:45:12.456Z,100.00
2023-04-23T02:47:40.375Z,100.00
2023-04-23T02:50:10.292Z,100.00
2023-04-23T02:52:37.970Z,100.00
2023-04-23T02:55:07.094Z,100.00
2023-04-23T02:57:34.837Z,100.00
2023-04-23T03:00:02.921Z,100.00
2023-04-23T03:02:40.194Z,100.00
2023-04-23T03:05:10.530Z,100.00
2023-04-23T03:07:38.241Z,100.00
2023-04-23T03:10:07.207Z,100.00
2023-04-23T03:12:35.594Z,100.00
2023-04-23T03:15:03.612Z,100.00
2023-04-23T03:17:34.446Z,100.00
2023-04-23T03:20:02.904Z,100.00
2023-04-23T03:22:32.949Z,100.00
2023-04-23T03:25:00.635Z,100.00
2023-04-23T03:27:28.740Z,100.00
2023-04-23T03:29:56.696Z,100.00
2023-04-23T03:32:24.532Z,100.00
2023-04-23T03:34:52.448Z,100.00
2023-04-23T03:37:20.450Z,100.00
2023-04-23T03:39:49.476Z,100.00
2023-04-23T03:42:17.325Z,100.00
2023-04-23T03:44:45.477Z,100.00
2023-04-23T03:47:13.146Z,100.00
2023-04-23T03:49:41.447Z,100.00
2023-04-23T03:52:09.504Z,100.00
2023-04-23T03:54:39.987Z,100.00
2023-04-23T03:57:16.209Z,100.00
2023-04-23T03:59:56.787Z,100.00
2023-04-23T04:02:25.876Z,100.00
2023-04-23T04:04:55.236Z,100.00
2023-04-23T04:07:25.970Z,100.00
2023-04-23T04:09:56.897Z,100.00
2023-04-23T04:12:27.925Z,100.00
2023-04-23T04:14:55.653Z,100.00
2023-04-23T04:17:23.381Z,100.00
2023-04-23T04:19:51.637Z,100.00
2023-04-23T04:22:19.351Z,100.00
2023-04-23T04:24:47.455Z,100.00
2023-04-23T04:27:15.724Z,100.00
2023-04-23T04:29:44.756Z,100.00
2023-04-23T04:32:13.612Z,100.00
2023-04-23T04:34:41.651Z,100.00
2023-04-23T04:37:09.969Z,100.00
2023-04-23T04:39:37.683Z,100.00
2023-04-23T04:42:07.195Z,100.00
2023-04-23T04:44:37.401Z,100.00
2023-04-23T04:47:07.936Z,100.00
2023-04-23T04:49:36.120Z,100.00
2023-04-23T04:52:03.854Z,100.00
2023-04-23T04:54:31.566Z,100.00
2023-04-23T04:56:59.247Z,100.00
2023-04-23T04:59:27.056Z,100.00
2023-04-23T05:01:55.310Z,100.00
2023-04-23T05:04:24.973Z,100.00
2023-04-23T05:06:52.771Z,100.00
2023-04-23T05:09:20.790Z,100.00
2023-04-23T05:11:48.618Z,100.00
2023-04-23T05:14:16.268Z,100.00
2023-04-23T05:16:44.033Z,100.00
2023-04-23T05:19:11.714Z,100.00
2023-04-23T05:21:41.299Z,100.00
2023-04-23T05:24:09.091Z,100.00
2023-04-23T05:26:36.832Z,100.00
2023-04-23T05:29:04.621Z,100.00
2023-04-23T05:31:33.014Z,100.00
2023-04-23T05:34:01.099Z,100.00
2023-04-23T05:36:28.756Z,100.00
2023-04-23T05:38:57.924Z,100.00
2023-04-23T05:41:26.038Z,100.00
2023-04-23T05:43:53.689Z,100.00
2023-04-23T05:46:21.343Z,100.00
2023-04-23T05:48:49.057Z,100.00
2023-04-23T05:51:17.103Z,100.00
2023-04-23T05:53:44.821Z,100.00
2023-04-23T05:56:13.860Z,100.00
2023-04-23T05:58:41.975Z,100.00
2023-04-23T06:01:09.696Z,100.00
2023-04-23T06:03:38.104Z,100.00
2023-04-23T06:06:06.280Z,100.00
2023-04-23T06:08:33.978Z,100.00
2023-04-23T06:11:01.952Z,100.00
2023-04-23T06:13:31.511Z,100.00
2023-04-23T06:15:59.524Z,100.00
2023-04-23T06:18:27.579Z,100.00
2023-04-23T06:20:56.883Z,100.00
2023-04-23T06:23:24.631Z,100.00
2023-04-23T06:25:52.268Z,100.00
2023-04-23T06:28:20.033Z,100.00
2023-04-23T06:31:09.209Z,100.00
2023-04-23T06:33:37.393Z,100.00
2023-04-23T06:36:05.473Z,100.00
2023-04-23T06:38:33.167Z,100.00
2023-04-23T06:41:00.844Z,100.00
2023-04-23T06:43:28.631Z,100.00
2023-04-23T06:46:20.819Z,100.00
2023-04-23T06:48:48.529Z,100.00
2023-04-23T06:51:16.832Z,100.00
2023-04-23T06:53:44.504Z,100.00
2023-04-23T06:56:12.292Z,100.00
2023-04-23T06:58:41.089Z,100.00
2023-04-23T07:01:17.067Z,100.00
2023-04-23T07:03:49.126Z,100.00
2023-04-23T07:06:17.117Z,100.00
2023-04-23T07:08:45.651Z,100.00
2023-04-23T07:11:13.465Z,100.00
2023-04-23T07:13:41.256Z,100.00
2023-04-23T07:16:09.065Z,100.00
2023-04-23T07:18:36.767Z,100.00
2023-04-23T07:21:05.913Z,100.00
2023-04-23T07:23:33.589Z,100.00
2023-04-23T07:26:01.297Z,100.00
2023-04-23T07:28:29.102Z,100.00
2023-04-23T07:30:57.175Z,100.00
2023-04-23T07:33:25.369Z,100.00
2023-04-23T07:35:53.167Z,100.00
2023-04-23T07:38:22.225Z,100.00
2023-04-23T07:40:50.199Z,100.00
2023-04-23T07:43:18.230Z,100.00
2023-04-23T07:45:46.130Z,100.00
2023-04-23T07:48:14.047Z,100.00
2023-04-23T07:50:42.147Z,100.00
2023-04-23T07:53:09.957Z,100.00
2023-04-23T07:55:39.050Z,100.00
2023-04-23T07:58:06.906Z,100.00
2023-04-23T08:00:34.762Z,100.00
2023-04-23T08:03:02.561Z,100.00
2023-04-23T08:05:30.486Z,100.00
2023-04-23T08:07:58.208Z,100.00
2023-04-23T08:10:25.876Z,100.00
2023-04-23T08:12:54.988Z,100.00
2023-04-23T08:15:22.866Z,100.00
2023-04-23T08:17:50.638Z,100.00
2023-04-23T08:20:19.198Z,100.00
2023-04-23T08:22:46.896Z,100.00
2023-04-23T08:25:14.631Z,100.00
2023-04-23T08:27:42.777Z,100.00
2023-04-23T08:30:12.482Z,100.00
2023-04-23T08:32:41.349Z,100.00
2023-04-23T08:35:10.378Z,95.28
2023-04-23T08:37:38.975Z,93.26
2023-04-23T08:40:08.585Z,97.77
2023-04-23T08:42:41.017Z,94.70
2023-04-23T08:45:09.666Z,96.88
2023-04-23T08:47:43.009Z,91.54
2023-04-23T08:50:12.854Z,95.90
2023-04-23T08:52:43.229Z,88.30
2023-04-23T08:55:11.698Z,84.13
2023-04-23T08:57:41.593Z,86.29
2023-04-23T09:00:11.517Z,90.79
2023-04-23T09:02:42.491Z,90.82
2023-04-23T09:05:11.341Z,87.74
2023-04-23T09:07:39.803Z,91.89
2023-04-23T09:10:09.848Z,89.24
2023-04-23T09:12:38.688Z,95.42
2023-04-23T09:15:10.870Z,97.91
2023-04-23T09:17:43.105Z,90.98
2023-04-23T09:20:12.143Z,88.35
2023-04-23T09:22:46.757Z,84.22
2023-04-23T09:25:17.309Z,78.05
2023-04-23T09:27:45.808Z,81.11
2023-04-23T09:30:14.769Z,75.82
2023-04-23T09:32:46.283Z,81.62
2023-04-23T09:35:16.239Z,78.63
2023-04-23T09:37:48.248Z,81.07
2023-04-23T09:40:17.588Z,79.20
2023-04-23T09:42:49.598Z,75.31
2023-04-23T09:45:17.771Z,73.29
2023-04-23T09:47:52.389Z,72.62
2023-04-23T09:50:20.364Z,77.58
2023-04-23T09:52:55.271Z,72.04
2023-04-23T09:55:29.158Z,68.20
2023-04-23T09:57:56.910Z,71.69
2023-04-23T10:00:29.199Z,70.34
2023-04-23T10:03:00.865Z,67.36
2023-04-23T10:05:34.176Z,66.91
2023-04-23T10:08:10.407Z,69.33
2023-04-23T10:10:54.493Z,65.83
2023-04-23T10:13:29.508Z,64.48
2023-04-23T10:16:07.139Z,63.93
2023-04-23T10:18:40.027Z,62.75
2023-04-23T10:21:08.484Z,64.51
2023-04-23T10:23:37.363Z,63.80
2023-04-23T10:26:07.024Z,63.00
2023-04-23T10:28:36.001Z,69.33
2023-04-23T10:31:06.257Z,67.33
2023-04-23T10:33:40.076Z,65.50
2023-04-23T10:36:12.246Z,61.40
2023-04-23T10:38:56.909Z,63.06
2023-04-23T10:41:28.776Z,65.39
2023-04-23T10:43:56.497Z,62.13
2023-04-23T10:46:30.264Z,58.72
2023-04-23T10:49:08.937Z,59.07
2023-04-23T10:54:11.125Z,62.17
2023-04-23T10:56:39.684Z,59.30
2023-04-23T10:59:09.349Z,62.85
2023-04-23T11:01:37.145Z,61.75
2023-04-23T11:04:24.854Z,60.06
2023-04-23T11:06:56.383Z,57.69
2023-04-23T11:09:39.611Z,56.71
2023-04-23T11:12:09.621Z,57.32
2023-04-23T11:14:39.048Z,53.60
2023-04-23T11:17:07.302Z,54.81
2023-04-23T11:19:38.993Z,55.27
2023-04-23T11:22:13.544Z,54.19
2023-04-23T11:24:43.073Z,57.95
2023-04-23T11:27:12.842Z,56.87
2023-04-23T11:29:42.777Z,55.43
2023-04-23T11:32:13.028Z,56.71
2023-04-23T11:34:43.216Z,56.40
2023-04-23T11:37:13.932Z,56.79
2023-04-23T11:39:44.033Z,57.98
2023-04-23T11:42:13.115Z,53.90
2023-04-23T11:44:41.580Z,54.40
2023-04-23T11:47:11.379Z,52.57
2023-04-23T11:49:39.493Z,52.51
2023-04-23T11:52:07.752Z,53.41
2023-04-23T11:54:36.873Z,50.59
2023-04-23T11:57:05.851Z,50.10
2023-04-23T11:59:33.684Z,52.18
2023-04-23T12:02:01.465Z,51.79
2023-04-23T12:04:31.658Z,52.58
2023-04-23T12:07:00.305Z,51.41
2023-04-23T12:09:30.065Z,50.12
2023-04-23T12:11:59.289Z,49.88
2023-04-23T12:14:29.871Z,48.52
2023-04-23T12:16:58.865Z,46.77
2023-04-23T12:19:31.429Z,48.71
2023-04-23T12:22:01.194Z,48.46
2023-04-23T12:24:31.007Z,49.85
2023-04-23T12:27:02.890Z,45.41
2023-04-23T12:29:31.912Z,48.46
2023-04-23T12:32:01.283Z,44.75
2023-04-23T12:34:29.392Z,44.72
2023-04-23T12:36:58.101Z,48.37
2023-04-23T12:39:29.185Z,46.84
2023-04-23T12:42:02.733Z,45.16
2023-04-23T12:44:31.146Z,45.75
2023-04-23T12:47:00.633Z,47.94
2023-04-23T12:49:29.416Z,46.83
2023-04-23T12:52:00.977Z,47.82
2023-04-23T12:54:31.151Z,46.29
2023-04-23T12:57:02.732Z,49.67
2023-04-23T12:59:30.976Z,45.55
2023-04-23T13:02:01.916Z,47.29
2023-04-23T13:04:29.977Z,44.32
2023-04-23T13:06:57.892Z,43.56
2023-04-23T13:09:27.689Z,44.13
2023-04-23T13:11:56.118Z,45.38
2023-04-23T13:14:25.210Z,45.47
2023-04-23T13:16:53.605Z,44.52
2023-04-23T13:19:21.322Z,46.44
2023-04-23T13:21:48.984Z,46.01
2023-04-23T13:24:16.849Z,46.17
2023-04-23T13:26:44.873Z,46.77
2023-04-23T13:29:12.776Z,46.99
2023-04-23T13:31:41.885Z,45.57
2023-04-23T13:34:09.704Z,45.56
2023-04-23T13:36:41.157Z,46.74
2023-04-23T13:39:10.907Z,47.27
2023-04-23T13:41:38.652Z,46.31
2023-04-23T13:44:06.340Z,46.45
2023-04-23T13:46:34.587Z,47.24
2023-04-23T13:49:03.681Z,46.19
2023-04-23T13:51:34.872Z,46.69
2023-04-23T13:54:03.497Z,46.75
2023-04-23T13:56:32.045Z,45.61
2023-04-23T13:59:17.567Z,48.12
2023-04-23T14:01:47.228Z,44.94
2023-04-23T14:04:16.495Z,45.26
2023-04-23T14:06:44.526Z,47.53
2023-04-23T14:09:12.555Z,46.03
2023-04-23T14:11:41.279Z,46.66
2023-04-23T14:14:08.968Z,46.03
2023-04-23T14:16:36.674Z,46.60
2023-04-23T14:19:04.369Z,45.15
2023-04-23T14:21:33.695Z,44.92
2023-04-23T14:24:03.470Z,45.02
2023-04-23T14:29:11.532Z,46.84
2023-04-23T14:31:39.358Z,42.57
2023-04-23T14:34:07.212Z,45.60
2023-04-23T14:36:36.270Z,46.13
2023-04-23T14:39:05.182Z,44.20
2023-04-23T14:41:33.309Z,44.24
2023-04-23T14:44:02.162Z,45.57
2023-04-23T14:46:30.076Z,44.77
2023-04-23T14:48:57.813Z,44.08
2023-04-23T14:51:27.286Z,43.68
2023-04-23T14:53:56.927Z,44.63
2023-04-23T14:56:25.550Z,44.89
2023-04-23T14:58:53.325Z,46.17
2023-04-23T15:01:21.117Z,46.17
2023-04-23T15:03:49.003Z,44.80
2023-04-23T15:06:17.248Z,46.65
2023-04-23T15:08:44.934Z,46.14
2023-04-23T15:11:14.477Z,45.31
2023-04-23T15:13:50.104Z,46.41
2023-04-23T15:16:46.799Z,47.73
2023-04-23T15:19:17.550Z,47.67
2023-04-23T15:21:46.931Z,47.56
2023-04-23T15:24:15.284Z,46.60
2023-04-23T15:26:45.654Z,47.81
2023-04-23T15:29:14.128Z,46.87
2023-04-23T15:31:42.082Z,47.50
2023-04-23T15:34:11.523Z,47.73
2023-04-23T15:36:39.288Z,49.95
2023-04-23T15:39:07.449Z,48.89
2023-04-23T15:41:38.555Z,51.43
2023-04-23T15:44:12.227Z,50.06
2023-04-23T15:46:40.682Z,50.91
2023-04-23T15:49:08.902Z,50.17
2023-04-23T15:51:36.738Z,49.43
2023-04-23T15:54:07.913Z,50.39
2023-04-23T15:56:35.845Z,48.10
2023-04-23T15:59:03.567Z,50.54
2023-04-23T16:01:32.717Z,51.32
2023-04-23T16:06:31.845Z,50.62
2023-04-23T16:08:59.532Z,52.97
2023-04-23T16:11:28.161Z,51.76
2023-04-23T16:13:56.983Z,52.51
2023-04-23T16:16:24.867Z,54.52
2023-04-23T16:18:54.372Z,58.06
2023-04-23T16:21:23.624Z,60.95
2023-04-23T16:23:51.345Z,68.16
2023-04-23T16:26:19.078Z,93.56
2023-04-23T16:28:51.864Z,100.00
2023-04-23T16:31:28.818Z,100.00
2023-04-23T16:33:57.926Z,100.00
2023-04-23T16:36:25.758Z,100.00
2023-04-23T16:38:53.743Z,100.00
2023-04-23T16:41:21.988Z,100.00
2023-04-23T16:43:49.800Z,100.00
2023-04-23T16:46:17.672Z,100.00
2023-04-23T16:48:46.337Z,100.00
2023-04-23T16:51:15.365Z,100.00
2023-04-23T16:53:43.465Z,100.00
2023-04-23T16:56:11.222Z,100.00
2023-04-23T16:58:38.904Z,100.00
2023-04-23T17:01:06.652Z,100.00
2023-04-23T17:03:36.435Z,100.00
2023-04-23T17:06:12.129Z,100.00
2023-04-23T17:08:41.335Z,100.00
2023-04-23T17:11:09.101Z,100.00
2023-04-23T17:13:36.747Z,100.00
2023-04-23T17:16:04.589Z,100.00
2023-04-23T17:18:32.266Z,100.00
2023-04-23T17:21:00.374Z,100.00
2023-04-23T17:23:28.044Z,100.00
2023-04-23T17:25:57.091Z,100.00
2023-04-23T17:28:25.054Z,100.00
2023-04-23T17:30:53.889Z,100.00
2023-04-23T17:33:21.783Z,100.00
2023-04-23T17:35:51.888Z,100.00
2023-04-23T17:38:20.542Z,100.00
2023-04-23T17:40:48.520Z,100.00
2023-04-23T17:43:17.949Z,100.00
2023-04-23T17:45:46.138Z,100.00
2023-04-23T17:48:14.616Z,100.00
2023-04-23T17:50:42.523Z,100.00
2023-04-23T17:53:10.589Z,100.00
2023-04-23T17:55:38.278Z,100.00
2023-04-23T17:58:06.584Z,100.00
2023-04-23T18:00:36.557Z,100.00
2023-04-23T18:03:05.309Z,100.00
2023-04-23T18:05:33.232Z,100.00
2023-04-23T18:08:00.984Z,100.00
2023-04-23T18:10:29.430Z,100.00
2023-04-23T18:12:57.354Z,100.00
2023-04-23T18:15:25.675Z,100.00
2023-04-23T18:17:56.122Z,100.00
2023-04-23T18:20:25.074Z,100.00
2023-04-23T18:22:54.301Z,100.00
2023-04-23T18:25:22.576Z,100.00
2023-04-23T18:27:50.395Z,100.00
2023-04-23T18:30:23.515Z,100.00
2023-04-23T18:33:12.645Z,100.00
2023-04-23T18:35:42.440Z,100.00
2023-04-23T18:38:12.021Z,100.00
2023-04-23T18:40:39.822Z,100.00
2023-04-23T18:43:07.667Z,100.00
2023-04-23T18:45:35.732Z,100.00
2023-04-23T18:48:41.315Z,100.00
2023-04-23T18:51:19.823Z,100.00
2023-04-23T18:53:48.225Z,100.00
2023-04-23T18:56:15.926Z,100.00
2023-04-23T18:58:43.690Z,100.00
2023-04-23T19:01:11.592Z,100.00
2023-04-23T19:03:40.880Z,100.00
2023-04-23T19:06:08.844Z,100.00
2023-04-23T19:08:36.866Z,100.00
2023-04-23T19:11:05.087Z,100.00
2023-04-23T19:13:32.955Z,100.00
2023-04-23T19:16:00.898Z,100.00
2023-04-23T19:18:28.996Z,100.00
2023-04-23T19:20:58.578Z,100.00
2023-04-23T19:23:26.310Z,100.00
2023-04-23T19:25:54.047Z,100.00
2023-04-23T19:28:21.883Z,100.00
2023-04-23T19:30:49.611Z,100.00
2023-04-23T19:33:17.503Z,100.00
2023-04-23T19:35:45.815Z,100.00
2023-04-23T19:38:15.038Z,100.00
2023-04-23T19:40:43.138Z,100.00
2023-04-23T19:43:12.731Z,100.00
2023-04-23T19:45:40.638Z,100.00
2023-04-23T19:48:08.533Z,100.00
2023-04-23T19:50:36.715Z,100.00
2023-04-23T19:53:05.870Z,100.00
2023-04-23T19:55:35.190Z,100.00
2023-04-23T19:58:06.216Z,100.00
2023-04-23T20:00:39.305Z,100.00
2023-04-23T20:03:07.955Z,100.00
2023-04-23T20:05:35.796Z,100.00
2023-04-23T20:08:06.940Z,100.00
2023-04-23T20:10:36.034Z,100.00
2023-04-23T20:13:03.683Z,100.00
2023-04-23T20:15:32.062Z,100.00
2023-04-23T20:18:01.507Z,100.00
2023-04-23T20:20:29.476Z,100.00
2023-04-23T20:22:57.281Z,100.00
2023-04-23T20:25:25.891Z,100.00
2023-04-23T20:27:56.882Z,100.00
2023-04-23T20:30:24.865Z,100.00
2023-04-23T20:32:52.561Z,100.00
2023-04-23T20:35:20.307Z,100.00
2023-04-23T20:37:47.944Z,100.00
2023-04-23T20:40:15.679Z,100.00
2023-04-23T20:42:43.528Z,100.00
2023-04-23T20:45:14.265Z,100.00
2023-04-23T20:47:44.347Z,100.00
2023-04-23T20:50:12.386Z,100.00
2023-04-23T20:52:40.059Z,100.00
2023-04-23T20:55:08.756Z,100.00
2023-04-23T20:57:36.875Z,100.00
2023-04-23T21:00:08.053Z,100.00
2023-04-23T21:02:37.965Z,100.00
2023-04-23T21:05:07.588Z,100.00
2023-04-23T21:07:36.633Z,100.00
2023-04-23T21:10:04.659Z,100.00
2023-04-23T21:12:33.077Z,100.00
2023-04-23T21:15:01.035Z,100.00
2023-04-23T21:17:28.980Z,100.00
2023-04-23T21:19:58.343Z,100.00
2023-04-23T21:22:26.173Z,100.00
2023-04-23T21:24:53.797Z,100.00
2023-04-23T21:27:21.971Z,100.00
2023-04-23T21:29:50.261Z,100.00
2023-04-23T21:32:17.937Z,100.00
2023-04-23T21:34:45.822Z,100.00
2023-04-23T21:37:15.234Z,100.00
2023-04-23T21:39:43.014Z,100.00
2023-04-23T21:42:10.855Z,100.00
2023-04-23T21:44:39.684Z,100.00
2023-04-23T21:47:07.790Z,100.00
2023-04-23T21:49:35.717Z,100.00
2023-04-23T21:52:03.567Z,100.00
2023-04-23T21:54:32.592Z,100.00
2023-04-23T21:57:01.121Z,100.00
2023-04-23T21:59:29.052Z,100.00
2023-04-23T22:01:57.899Z,100.00
2023-04-23T22:04:27.566Z,100.00
2023-04-23T22:06:56.967Z,100.00
2023-04-23T22:09:24.547Z,100.00
2023-04-23T22:12:01.911Z,100.00
2023-04-23T22:14:30.613Z,100.00
2023-04-23T22:16:59.310Z,100.00
2023-04-23T22:19:27.138Z,100.00
2023-04-23T22:21:55.181Z,100.00
2023-04-23T22:24:23.548Z,100.00
2023-04-23T22:26:52.703Z,100.00
2023-04-23T22:29:20.487Z,100.00
2023-04-23T22:31:48.191Z,100.00
2023-04-23T22:34:16.056Z,100.00
2023-04-23T22:36:43.777Z,100.00
2023-04-23T22:39:12.440Z,100.00
2023-04-23T22:41:40.385Z,100.00
2023-04-23T22:44:10.038Z,100.00
2023-04-23T22:46:38.129Z,100.00
2023-04-23T22:49:08.036Z,100.00
2023-04-23T22:51:39.083Z,100.00
2023-04-23T22:54:06.945Z,100.00
2023-04-23T22:56:34.599Z,100.00
2023-04-23T22:59:04.868Z,100.00
2023-04-23T23:01:34.143Z,100.00
2023-04-23T23:04:02.132Z,100.00
2023-04-23T23:06:30.287Z,100.00
2023-04-23T23:08:57.938Z,100.00
2023-04-23T23:11:28.665Z,100.00
2023-04-23T23:13:57.196Z,100.00
2023-04-23T23:16:25.484Z,100.00
2023-04-23T23:18:54.663Z,100.00
2023-04-23T23:21:22.645Z,100.00
2023-04-23T23:23:51.113Z,100.00
2023-04-23T23:26:19.975Z,100.00
2023-04-23T23:28:47.812Z,100.00
2023-04-23T23:31:15.594Z,100.00
2023-04-23T23:33:43.428Z,100.00
2023-04-23T23:36:12.896Z,100.00
2023-04-23T23:38:40.659Z,100.00
2023-04-23T23:41:08.457Z,100.00
2023-04-23T23:43:36.133Z,100.00
2023-04-23T23:46:03.975Z,100.00
2023-04-23T23:48:31.916Z,100.00
2023-04-23T23:50:59.601Z,100.00
2023-04-23T23:53:28.633Z,100.00
2023-04-23T23:55:56.323Z,100.00
2023-04-23T23:58:23.953Z,100.00
